createdAt,value
2022-11-04T00:01:24.482Z,12.89
2022-11-04T00:04:49.723Z,12.92
2022-11-04T00:08:14.974Z,12.92
2022-11-04T00:11:40.228Z,12.89
2022-11-04T00:15:05.468Z,12.9
2022-11-04T00:18:30.716Z,12.85
2022-11-04T00:21:55.969Z,12.84
2022-11-04T00:25:21.218Z,12.86
2022-11-04T00:28:46.473Z,12.91
2022-11-04T00:32:11.711Z,12.95
2022-11-04T00:35:36.968Z,12.98
2022-11-04T00:39:02.232Z,13.02
2022-11-04T00:42:27.488Z,13.03
2022-11-04T00:45:52.769Z,13.04
2022-11-04T00:49:18.012Z,13.07
2022-11-04T00:52:43.255Z,13.05
2022-11-04T00:56:08.522Z,13.03
2022-11-04T00:59:33.802Z,13
2022-11-04T01:02:59.071Z,13
2022-11-04T01:06:24.285Z,13
2022-11-04T01:09:49.533Z,13.02
2022-11-04T01:13:14.774Z,13
2022-11-04T01:16:39.997Z,12.96
2022-11-04T01:20:05.258Z,12.91
2022-11-04T01:23:30.486Z,12.85
2022-11-04T01:26:55.711Z,12.78
2022-11-04T01:30:20.958Z,12.72
2022-11-04T01:33:46.189Z,12.67
2022-11-04T01:37:11.439Z,12.63
2022-11-04T01:40:36.655Z,12.65
2022-11-04T01:44:01.907Z,12.69
2022-11-04T01:47:27.142Z,12.71
2022-11-04T01:50:52.393Z,12.71
2022-11-04T01:54:17.647Z,12.71
2022-11-04T01:57:42.841Z,12.71
2022-11-04T02:01:08.111Z,12.68
2022-11-04T02:04:33.328Z,12.7
2022-11-04T02:07:58.623Z,12.71
2022-11-04T02:11:23.891Z,12.73
2022-11-04T02:14:49.123Z,12.75
2022-11-04T02:18:14.365Z,12.77
2022-11-04T02:21:39.611Z,12.75
2022-11-04T02:25:04.869Z,12.76
2022-11-04T02:28:30.130Z,12.74
2022-11-04T02:31:55.343Z,12.74
2022-11-04T02:35:20.594Z,12.75
2022-11-04T02:38:45.862Z,12.77
2022-11-04T02:42:11.099Z,12.76
2022-11-04T02:45:36.370Z,12.75
2022-11-04T02:49:01.604Z,12.76
2022-11-04T02:52:26.851Z,12.77
2022-11-04T02:55:52.081Z,12.76
2022-11-04T02:59:17.339Z,12.76
2022-11-04T03:02:42.604Z,12.69
2022-11-04T03:06:07.832Z,12.65
2022-11-04T03:09:33.083Z,12.61
2022-11-04T03:12:58.335Z,12.56
2022-11-04T03:16:23.582Z,12.55
2022-11-04T03:19:48.847Z,12.51
2022-11-04T03:23:14.089Z,12.52
2022-11-04T03:26:39.337Z,12.53
2022-11-04T03:30:04.701Z,12.5
2022-11-04T03:33:29.852Z,12.48
2022-11-04T03:36:55.124Z,12.5
2022-11-04T03:40:20.358Z,12.47
2022-11-04T03:43:45.621Z,12.44
2022-11-04T03:47:10.878Z,12.42
2022-11-04T03:50:36.122Z,12.42
2022-11-04T03:54:01.417Z,12.44
2022-11-04T03:57:26.647Z,12.48
2022-11-04T04:00:51.974Z,12.53
2022-11-04T04:04:17.149Z,12.6
2022-11-04T04:07:42.399Z,12.62
2022-11-04T04:11:07.699Z,12.65
2022-11-04T04:14:32.934Z,12.65
2022-11-04T04:17:58.240Z,12.64
2022-11-04T04:21:23.446Z,12.71
2022-11-04T04:24:48.701Z,12.73
2022-11-04T04:28:14.080Z,12.74
2022-11-04T04:31:39.250Z,12.73
2022-11-04T04:35:04.493Z,12.73
2022-11-04T04:38:29.771Z,12.74
2022-11-04T04:41:55.019Z,12.79
2022-11-04T04:45:20.280Z,12.84
2022-11-04T04:48:46.608Z,12.88
2022-11-04T04:52:11.870Z,12.91
2022-11-04T04:55:38.987Z,12.93
2022-11-04T04:59:02.438Z,12.97
2022-11-04T05:02:27.773Z,13
2022-11-04T05:05:53.807Z,13.02
2022-11-04T05:09:18.226Z,13
2022-11-04T05:12:43.471Z,12.97
2022-11-04T05:16:08.924Z,12.94
2022-11-04T05:19:34.190Z,12.93
2022-11-04T05:22:59.461Z,12.94
2022-11-04T05:26:24.701Z,12.92
2022-11-04T05:29:49.942Z,12.88
2022-11-04T05:33:15.151Z,12.87
2022-11-04T05:36:40.435Z,12.92
2022-11-04T05:40:05.663Z,12.94
2022-11-04T05:43:30.886Z,12.92
2022-11-04T05:46:56.138Z,12.88
2022-11-04T05:50:21.390Z,12.87
2022-11-04T05:53:47.323Z,12.92
2022-11-04T05:57:12.608Z,12.94
2022-11-04T06:00:37.852Z,12.97
2022-11-04T06:04:03.100Z,13.01
2022-11-04T06:07:28.348Z,13.02
2022-11-04T06:10:53.666Z,13.04
2022-11-04T06:14:19.095Z,13.01
2022-11-04T06:17:44.140Z,12.97
2022-11-04T06:21:09.396Z,12.99
2022-11-04T06:24:34.655Z,13.03
2022-11-04T06:27:59.952Z,13.07
2022-11-04T06:31:25.173Z,13.1
2022-11-04T06:34:50.440Z,13.1
2022-11-04T06:38:15.696Z,13.1
2022-11-04T06:41:42.773Z,13.13
2022-11-04T06:45:06.199Z,13.14
2022-11-04T06:48:31.427Z,13.15
2022-11-04T06:51:56.672Z,13.14
2022-11-04T06:55:21.941Z,13.14
2022-11-04T06:58:47.202Z,13.14
2022-11-04T07:02:12.647Z,13.05
2022-11-04T07:05:38.450Z,12.98
2022-11-04T07:09:03.676Z,12.96
2022-11-04T07:12:28.915Z,12.92
2022-11-04T07:15:54.177Z,12.92
2022-11-04T07:19:19.533Z,12.93
2022-11-04T07:22:44.686Z,12.97
2022-11-04T07:26:09.956Z,13.01
2022-11-04T07:29:35.213Z,13.01
2022-11-04T07:33:00.465Z,13.02
2022-11-04T07:36:25.803Z,13.02
2022-11-04T07:39:51.007Z,13.05
2022-11-04T07:43:16.240Z,13.11
2022-11-04T07:46:41.516Z,13.14
2022-11-04T07:50:10.882Z,13.16
2022-11-04T07:53:32.044Z,13.18
2022-11-04T07:56:57.265Z,13.23
2022-11-04T08:00:22.521Z,13.26
2022-11-04T08:03:47.767Z,13.26
2022-11-04T08:07:13.022Z,13.23
2022-11-04T08:10:38.320Z,13.2
2022-11-04T08:14:03.569Z,13.14
2022-11-04T08:17:28.826Z,13.11
2022-11-04T08:20:54.097Z,13.1
2022-11-04T08:24:19.358Z,13.08
2022-11-04T08:27:44.646Z,13.05
2022-11-04T08:31:09.858Z,13.02
2022-11-04T08:34:35.115Z,12.98
2022-11-04T08:38:00.384Z,12.92
2022-11-04T08:41:25.654Z,12.91
2022-11-04T08:44:50.944Z,12.95
2022-11-04T08:48:16.167Z,12.95
2022-11-04T08:51:41.428Z,13
2022-11-04T08:55:06.678Z,13.02
2022-11-04T08:58:31.930Z,13.06
2022-11-04T09:01:57.395Z,13.12
2022-11-04T09:05:22.524Z,13.16
2022-11-04T09:08:47.854Z,13.16
2022-11-04T09:12:13.130Z,13.16
2022-11-04T09:15:38.392Z,13.16
2022-11-04T09:19:03.769Z,13.17
2022-11-04T09:22:28.952Z,13.1
2022-11-04T09:25:54.217Z,13.06
2022-11-04T09:29:19.482Z,13.06
2022-11-04T09:32:47.513Z,13.03
2022-11-04T09:36:10.229Z,12.94
2022-11-04T09:39:35.287Z,12.93
2022-11-04T09:43:00.545Z,12.94
2022-11-04T09:46:25.807Z,12.99
2022-11-04T09:49:51.074Z,13.02
2022-11-04T09:53:16.445Z,13.03
2022-11-04T09:56:41.587Z,13.02
2022-11-04T10:00:06.887Z,13
2022-11-04T10:03:32.143Z,13.01
2022-11-04T10:06:57.437Z,13.03
2022-11-04T10:10:23.239Z,13.04
2022-11-04T10:13:48.348Z,13.05
2022-11-04T10:17:13.611Z,13.1
2022-11-04T10:20:43.566Z,13.11
2022-11-04T10:24:04.167Z,13.14
2022-11-04T10:27:29.557Z,13.17
2022-11-04T10:30:54.725Z,13.19
2022-11-04T10:34:20.056Z,13.19
2022-11-04T10:37:45.340Z,13.2
2022-11-04T10:41:10.611Z,13.19
2022-11-04T10:44:36.014Z,13.22
2022-11-04T10:48:01.174Z,13.24
2022-11-04T10:51:26.462Z,13.23
2022-11-04T10:54:51.774Z,13.16
2022-11-04T10:58:17.067Z,13.14
2022-11-04T11:01:42.472Z,13.11
2022-11-04T11:05:07.586Z,13.12
2022-11-04T11:08:32.846Z,13.13
2022-11-04T11:11:58.105Z,13.17
2022-11-04T11:15:23.354Z,13.22
2022-11-04T11:18:48.630Z,13.26
2022-11-04T11:22:13.847Z,13.3
2022-11-04T11:25:39.106Z,13.32
2022-11-04T11:29:04.380Z,13.36
2022-11-04T11:32:29.645Z,13.4
2022-11-04T11:35:54.920Z,13.42
2022-11-04T11:39:20.164Z,13.46
2022-11-04T11:42:45.426Z,13.51
2022-11-04T11:46:10.688Z,13.51
2022-11-04T11:49:36.038Z,13.54
2022-11-04T11:53:01.240Z,13.56
2022-11-04T11:56:27.029Z,13.62
2022-11-04T12:03:18.173Z,13.62
2022-11-04T12:10:18.088Z,13.55
2022-11-04T12:13:33.067Z,13.5
2022-11-04T12:16:58.268Z,13.51
2022-11-04T12:20:23.562Z,13.52
2022-11-04T12:23:48.873Z,13.55
2022-11-04T12:27:14.185Z,13.55
2022-11-04T12:30:39.457Z,13.54
2022-11-04T12:34:04.755Z,13.57
2022-11-04T12:37:30.061Z,13.56
2022-11-04T12:41:19.032Z,13.54
2022-11-04T12:44:20.702Z,13.56
2022-11-04T12:47:45.976Z,13.59
2022-11-04T12:51:11.283Z,13.59
2022-11-04T12:54:36.581Z,13.6
2022-11-04T12:58:01.887Z,13.61
2022-11-04T13:01:27.359Z,13.64
2022-11-04T13:04:52.478Z,13.65
2022-11-04T13:08:17.780Z,13.63
2022-11-04T13:11:43.053Z,13.6
2022-11-04T13:15:08.351Z,13.61
2022-11-04T13:18:33.667Z,13.61
2022-11-04T13:21:58.918Z,13.63
2022-11-04T13:25:24.211Z,13.63
2022-11-04T13:28:49.519Z,13.64
2022-11-04T13:32:14.810Z,13.63
2022-11-04T13:35:40.130Z,13.63
2022-11-04T13:39:05.393Z,13.62
2022-11-04T13:42:30.766Z,13.63
2022-11-04T13:45:55.999Z,13.65
2022-11-04T13:49:21.267Z,13.67
2022-11-04T13:52:51.380Z,13.72
2022-11-04T13:56:31.983Z,13.74
2022-11-04T13:59:37.285Z,13.74
2022-11-04T14:03:02.536Z,13.69
2022-11-04T14:06:29.161Z,13.67
2022-11-04T14:09:53.198Z,13.66
2022-11-04T14:13:18.347Z,13.64
2022-11-04T14:16:43.641Z,13.63
2022-11-04T14:20:08.952Z,13.66
2022-11-04T14:23:34.246Z,13.64
2022-11-04T14:26:59.558Z,13.63
2022-11-04T15:03:01.942Z,11.22
2022-11-04T15:06:35.129Z,12.12
2022-11-04T15:09:52.490Z,12.33
2022-11-04T15:13:17.808Z,12.48
2022-11-04T15:16:43.126Z,12.63
2022-11-04T15:20:08.485Z,12.72
2022-11-04T15:23:33.780Z,12.79
2022-11-04T15:26:59.103Z,12.82
2022-11-04T15:30:24.386Z,12.88
2022-11-04T15:33:49.682Z,12.92
2022-11-04T15:37:15.020Z,12.95
2022-11-04T15:40:40.289Z,12.97
2022-11-04T15:44:05.577Z,12.98
2022-11-04T15:47:30.852Z,12.98
2022-11-04T15:50:56.155Z,12.94
2022-11-04T15:54:21.446Z,12.92
2022-11-04T15:57:46.700Z,12.88
2022-11-04T16:01:12.094Z,12.85
2022-11-04T16:04:37.256Z,12.83
2022-11-04T16:08:02.532Z,12.77
2022-11-04T16:11:27.865Z,12.71
2022-11-04T16:14:53.051Z,12.68
2022-11-04T16:18:18.328Z,12.62
2022-11-04T16:21:43.646Z,12.6
2022-11-04T16:25:08.878Z,12.58
2022-11-04T16:28:34.147Z,12.53
2022-11-04T16:31:59.375Z,12.49
2022-11-04T16:35:24.601Z,12.44
2022-11-04T16:38:50.172Z,12.41
2022-11-04T16:42:15.479Z,12.39
2022-11-04T16:45:40.772Z,12.39
2022-11-04T16:49:06.010Z,12.36
2022-11-04T16:52:31.258Z,12.36
2022-11-04T16:55:56.515Z,12.37
2022-11-04T16:59:21.767Z,12.37
2022-11-04T17:02:47.034Z,12.37
2022-11-04T17:06:12.288Z,12.36
2022-11-04T17:09:37.541Z,12.37
2022-11-04T17:13:02.803Z,12.4
2022-11-04T17:16:28.048Z,12.4
2022-11-04T17:19:53.283Z,12.41
2022-11-04T17:23:18.524Z,12.42
2022-11-04T17:26:43.745Z,12.42
2022-11-04T17:30:09.021Z,12.4
2022-11-04T17:33:34.284Z,12.4
2022-11-04T17:36:59.748Z,12.37
2022-11-04T17:40:24.806Z,12.36
2022-11-04T17:43:50.056Z,12.33
2022-11-04T17:47:15.324Z,12.29
2022-11-04T17:50:40.569Z,12.28
2022-11-04T17:54:05.984Z,12.27
2022-11-04T17:57:31.059Z,12.25
2022-11-04T18:00:56.884Z,12.24
2022-11-04T18:04:21.584Z,12.23
2022-11-04T18:07:46.866Z,12.23
2022-11-04T18:11:12.154Z,12.23
2022-11-04T18:14:37.384Z,12.24
2022-11-04T18:18:02.654Z,12.23
2022-11-04T18:21:27.920Z,12.21
2022-11-04T18:24:53.222Z,12.19
2022-11-04T18:28:18.457Z,12.15
2022-11-04T18:31:48.708Z,12.14
2022-11-04T18:35:09.021Z,12.13
2022-11-04T18:38:34.269Z,12.11
2022-11-04T18:41:59.570Z,12.09
2022-11-04T18:45:24.859Z,12.06
2022-11-04T18:48:50.092Z,12.03
2022-11-04T18:52:15.351Z,12.01
2022-11-04T18:55:40.667Z,11.99
2022-11-04T18:59:05.983Z,11.96
2022-11-04T19:02:31.872Z,11.94
2022-11-04T19:05:56.836Z,11.92
2022-11-04T19:12:47.382Z,11.9
2022-11-04T19:16:12.686Z,11.88
2022-11-04T19:19:38.072Z,11.88
2022-11-04T19:23:03.378Z,11.86
2022-11-04T19:26:28.795Z,11.83
2022-11-04T19:29:54.168Z,11.8
2022-11-04T19:33:19.512Z,11.74
2022-11-04T19:36:44.902Z,11.72
2022-11-04T19:40:10.183Z,11.68
2022-11-04T19:43:35.514Z,11.65
2022-11-04T19:47:00.812Z,11.63
2022-11-04T19:50:26.090Z,11.62
2022-11-04T19:53:51.412Z,11.62
2022-11-04T19:57:16.720Z,11.64
2022-11-04T20:00:42.024Z,11.64
2022-11-04T20:04:07.368Z,11.67
2022-11-04T20:07:32.695Z,11.71
2022-11-04T20:10:58.078Z,11.74
2022-11-04T20:14:23.397Z,11.74
2022-11-04T20:17:48.677Z,11.74
2022-11-04T20:21:13.953Z,11.76
2022-11-04T20:24:39.300Z,11.76
2022-11-04T20:28:04.595Z,11.77
2022-11-04T20:31:29.894Z,11.8
2022-11-04T20:34:55.163Z,11.84
2022-11-04T20:38:20.424Z,11.84
2022-11-04T20:41:45.660Z,11.86
2022-11-04T20:45:10.928Z,11.87
2022-11-04T20:48:36.151Z,11.89
2022-11-04T20:52:01.429Z,11.91
2022-11-04T20:55:26.685Z,11.92
2022-11-04T20:58:55.982Z,11.93
2022-11-04T21:02:17.307Z,11.91
2022-11-04T21:05:42.486Z,11.92
2022-11-04T21:09:07.740Z,11.92
2022-11-04T21:12:32.975Z,11.92
2022-11-04T21:15:58.236Z,11.91
2022-11-04T21:19:23.505Z,11.89
2022-11-04T21:22:48.741Z,11.89
2022-11-04T21:26:14.044Z,11.88
2022-11-04T21:29:39.312Z,11.87
2022-11-04T21:33:04.549Z,11.87
2022-11-04T21:36:29.938Z,11.84
2022-11-04T21:39:55.086Z,11.82
2022-11-04T21:43:20.328Z,11.79
2022-11-04T21:46:45.577Z,11.76
2022-11-04T21:50:15.244Z,11.76
2022-11-04T21:53:36.103Z,11.75
2022-11-04T21:57:01.333Z,11.71
2022-11-04T22:00:26.577Z,11.68
2022-11-04T22:03:51.814Z,11.64
2022-11-04T22:07:17.073Z,11.6
2022-11-04T22:10:42.489Z,11.6
2022-11-04T22:14:07.632Z,11.62
2022-11-04T22:17:32.905Z,11.66
2022-11-04T22:20:58.159Z,11.69
2022-11-04T22:24:23.435Z,11.71
2022-11-04T22:27:48.804Z,11.7
2022-11-04T22:31:13.958Z,11.68
2022-11-04T22:34:39.224Z,11.61
2022-11-04T22:38:04.504Z,11.55
2022-11-04T22:41:29.742Z,11.48
2022-11-04T22:44:55.028Z,11.45
2022-11-04T22:48:20.264Z,11.41
2022-11-04T22:51:45.529Z,11.39
2022-11-04T22:55:11.495Z,11.38
2022-11-04T22:58:36.758Z,11.38
2022-11-04T23:02:02.199Z,11.38
2022-11-04T23:05:27.332Z,11.39
2022-11-04T23:08:56.807Z,11.42
2022-11-04T23:12:17.811Z,11.44
2022-11-04T23:15:43.060Z,11.43
2022-11-04T23:19:08.337Z,11.45
2022-11-04T23:22:33.575Z,11.5
2022-11-04T23:25:58.861Z,11.52
2022-11-04T23:29:24.117Z,11.51
2022-11-04T23:32:49.375Z,11.54
2022-11-04T23:36:14.666Z,11.57
2022-11-04T23:39:39.878Z,11.59
2022-11-04T23:43:05.141Z,11.64
2022-11-04T23:46:30.415Z,11.67
2022-11-04T23:49:55.655Z,11.7
2022-11-04T23:53:20.935Z,11.72
2022-11-04T23:56:46.146Z,11.74
